createdAt,value
2023-11-17T00:01:03.943Z,3.70
2023-11-17T00:03:30.725Z,3.30
2023-11-17T00:05:57.458Z,3.60
2023-11-17T00:08:24.028Z,3.70
2023-11-17T00:10:50.603Z,3.50
2023-11-17T00:13:17.121Z,3.20
2023-11-17T00:15:43.782Z,2.90
2023-11-17T00:18:10.302Z,3.30
2023-11-17T00:20:36.834Z,3.80
2023-11-17T00:23:03.651Z,3.90
2023-11-17T00:25:30.278Z,3.20
2023-11-17T00:27:58.274Z,3.20
2023-11-17T00:30:26.015Z,2.60
2023-11-17T00:32:53.648Z,3.60
2023-11-17T00:35:21.013Z,2.90
2023-11-17T00:37:47.958Z,3.20
2023-11-17T00:40:14.725Z,3.50
2023-11-17T00:42:41.376Z,3.00
2023-11-17T00:45:09.375Z,3.30
2023-11-17T00:47:36.300Z,3.20
2023-11-17T00:50:11.315Z,3.40
2023-11-17T00:52:40.022Z,3.90
2023-11-17T00:55:08.343Z,3.20
2023-11-17T00:57:35.158Z,3.10
2023-11-17T01:00:02.025Z,3.10
2023-11-17T01:02:28.977Z,3.00
2023-11-17T01:04:55.808Z,2.70
2023-11-17T01:07:22.735Z,2.80
2023-11-17T01:09:49.890Z,2.90
2023-11-17T01:12:16.865Z,2.70
2023-11-17T01:14:43.670Z,3.00
2023-11-17T01:17:12.065Z,3.00
2023-11-17T01:19:40.907Z,3.60
2023-11-17T01:22:07.583Z,3.00
2023-11-17T01:24:34.262Z,2.70
2023-11-17T01:27:05.406Z,2.80
2023-11-17T01:29:32.904Z,2.90
2023-11-17T01:31:59.426Z,3.10
2023-11-17T01:34:29.102Z,3.40
2023-11-17T01:36:56.025Z,3.00
2023-11-17T01:39:22.897Z,3.20
2023-11-17T01:41:49.496Z,2.90
2023-11-17T01:44:16.266Z,2.40
2023-11-17T01:46:44.741Z,2.90
2023-11-17T01:49:13.166Z,3.50
2023-11-17T01:51:39.806Z,3.10
2023-11-17T01:54:06.513Z,2.90
2023-11-17T01:56:33.595Z,3.20
2023-11-17T01:59:00.184Z,2.90
2023-11-17T02:01:28.046Z,2.80
2023-11-17T02:03:56.502Z,3.20
2023-11-17T02:06:49.188Z,3.30
2023-11-17T02:09:38.157Z,3.00
2023-11-17T02:12:16.587Z,3.40
2023-11-17T02:14:46.686Z,3.50
2023-11-17T02:17:16.078Z,3.30
2023-11-17T02:19:45.877Z,3.10
2023-11-17T02:22:18.413Z,3.50
2023-11-17T02:25:02.116Z,3.80
2023-11-17T02:29:49.183Z,4.10
2023-11-17T02:32:17.895Z,6.10
2023-11-17T02:34:46.111Z,4.60
2023-11-17T02:37:13.609Z,4.40
2023-11-17T02:39:41.391Z,4.90
2023-11-17T02:42:12.107Z,3.90
2023-11-17T02:44:41.629Z,3.70
2023-11-17T02:47:21.168Z,3.80
2023-11-17T02:49:54.642Z,4.00
2023-11-17T02:52:25.326Z,4.20
2023-11-17T02:54:53.386Z,4.30
2023-11-17T02:57:23.822Z,5.10
2023-11-17T02:59:51.894Z,5.60
2023-11-17T03:02:21.047Z,7.40
2023-11-17T03:04:55.747Z,6.10
2023-11-17T03:07:23.444Z,5.40
2023-11-17T03:09:53.508Z,6.40
2023-11-17T03:12:21.611Z,6.20
2023-11-17T03:14:49.089Z,4.50
2023-11-17T03:17:16.567Z,3.70
2023-11-17T03:19:44.323Z,4.40
2023-11-17T03:22:15.196Z,4.40
2023-11-17T03:24:42.819Z,4.30
2023-11-17T03:27:12.629Z,5.10
2023-11-17T03:29:40.418Z,4.80
2023-11-17T03:32:09.126Z,4.20
2023-11-17T03:34:36.911Z,4.90
2023-11-17T03:37:05.237Z,4.30
2023-11-17T03:39:34.275Z,4.90
2023-11-17T03:42:02.179Z,4.50
2023-11-17T03:44:29.688Z,4.60
2023-11-17T03:46:57.571Z,3.90
2023-11-17T03:49:25.978Z,3.90
2023-11-17T03:51:55.044Z,4.90
2023-11-17T03:54:22.929Z,4.90
2023-11-17T03:56:50.821Z,5.40
2023-11-17T03:59:20.198Z,5.40
2023-11-17T04:01:47.897Z,5.00
2023-11-17T04:04:21.695Z,4.30
2023-11-17T04:06:52.272Z,5.30
2023-11-17T04:09:23.266Z,4.30
2023-11-17T04:11:53.253Z,5.10
2023-11-17T04:14:22.072Z,5.20
2023-11-17T04:16:51.025Z,6.00
2023-11-17T04:19:22.272Z,5.40
2023-11-17T04:21:50.972Z,4.40
2023-11-17T04:24:19.086Z,5.00
2023-11-17T04:26:47.816Z,4.90
2023-11-17T04:29:15.730Z,5.20
2023-11-17T04:31:43.526Z,6.30
2023-11-17T04:34:14.022Z,5.60
2023-11-17T04:36:41.660Z,5.50
2023-11-17T04:39:18.328Z,4.30
2023-11-17T04:41:49.809Z,5.00
2023-11-17T04:44:18.507Z,5.40
2023-11-17T04:46:46.105Z,5.90
2023-11-17T04:49:16.523Z,5.40
2023-11-17T04:51:50.145Z,5.90
2023-11-17T04:56:44.969Z,5.30
2023-11-17T04:59:12.427Z,5.60
2023-11-17T05:01:40.114Z,6.30
2023-11-17T05:04:08.561Z,5.50
2023-11-17T05:06:37.752Z,7.30
2023-11-17T05:09:12.779Z,7.00
2023-11-17T05:11:40.426Z,6.00
2023-11-17T05:14:08.069Z,5.90
2023-11-17T05:16:36.815Z,5.80
2023-11-17T05:19:05.430Z,5.90
2023-11-17T05:21:33.949Z,6.00
2023-11-17T05:24:03.803Z,6.60
2023-11-17T05:26:31.568Z,6.40
2023-11-17T05:28:59.184Z,5.30
2023-11-17T05:31:29.824Z,5.50
2023-11-17T05:33:59.283Z,6.50
2023-11-17T05:36:27.547Z,9.40
2023-11-17T05:38:57.129Z,7.80
2023-11-17T05:41:27.111Z,9.40
2023-11-17T05:43:55.056Z,7.40
2023-11-17T05:46:23.016Z,6.00
2023-11-17T05:48:51.595Z,5.80
2023-11-17T05:51:19.307Z,6.20
2023-11-17T05:53:47.350Z,6.30
2023-11-17T05:56:17.453Z,6.70
2023-11-17T05:58:46.330Z,5.70
2023-11-17T06:01:15.293Z,5.20
2023-11-17T06:03:43.098Z,6.20
2023-11-17T06:06:10.809Z,6.30
2023-11-17T06:08:38.859Z,6.40
2023-11-17T06:11:10.195Z,7.50
2023-11-17T06:13:41.795Z,6.90
2023-11-17T06:16:09.734Z,6.50
2023-11-17T06:18:38.187Z,6.20
2023-11-17T06:21:05.935Z,6.20
2023-11-17T06:23:33.812Z,7.60
2023-11-17T06:26:01.281Z,7.50
2023-11-17T06:28:29.551Z,7.00
2023-11-17T06:30:57.115Z,6.00
2023-11-17T06:33:24.610Z,7.00
2023-11-17T06:35:52.087Z,7.60
2023-11-17T06:38:19.677Z,9.00
2023-11-17T06:40:47.258Z,7.00
2023-11-17T06:43:15.776Z,6.40
2023-11-17T06:45:43.304Z,7.10
2023-11-17T06:48:10.947Z,6.80
2023-11-17T06:50:38.649Z,6.10
2023-11-17T06:53:06.153Z,6.10
2023-11-17T06:55:33.648Z,6.00
2023-11-17T06:58:01.248Z,5.60
2023-11-17T07:00:29.395Z,6.80
2023-11-17T07:02:57.170Z,6.20
2023-11-17T07:05:26.139Z,7.80
2023-11-17T07:07:55.092Z,6.20
2023-11-17T07:10:26.679Z,6.90
2023-11-17T07:12:54.244Z,7.10
2023-11-17T07:15:23.505Z,6.40
2023-11-17T07:17:53.416Z,5.50
2023-11-17T07:20:23.292Z,6.50
2023-11-17T07:22:50.737Z,6.70
2023-11-17T07:25:18.662Z,5.90
2023-11-17T07:27:46.253Z,5.90
2023-11-17T07:30:14.525Z,6.10
2023-11-17T07:32:42.749Z,6.20
2023-11-17T07:35:10.444Z,7.00
2023-11-17T07:37:38.229Z,6.60
2023-11-17T07:40:07.057Z,7.00
2023-11-17T07:42:34.574Z,6.70
2023-11-17T07:45:04.966Z,6.90
2023-11-17T07:47:35.272Z,5.90
2023-11-17T07:50:08.520Z,7.10
2023-11-17T07:52:36.259Z,6.20
2023-11-17T07:55:04.053Z,7.10
2023-11-17T07:57:31.647Z,8.60
2023-11-17T07:59:59.273Z,8.80
2023-11-17T08:02:26.777Z,6.90
2023-11-17T08:04:56.001Z,7.00
2023-11-17T08:07:23.742Z,6.60
2023-11-17T08:09:51.386Z,7.90
2023-11-17T08:12:20.074Z,6.90
2023-11-17T08:14:47.584Z,7.90
2023-11-17T08:17:15.088Z,7.70
2023-11-17T08:19:42.576Z,7.70
2023-11-17T08:22:10.232Z,7.20
2023-11-17T08:24:37.726Z,7.50
2023-11-17T08:27:05.385Z,8.30
2023-11-17T08:29:32.953Z,7.40
2023-11-17T08:32:00.578Z,8.20
2023-11-17T08:34:28.611Z,7.60
2023-11-17T08:36:56.213Z,7.90
2023-11-17T08:39:28.013Z,8.60
2023-11-17T08:41:56.853Z,8.10
2023-11-17T08:44:24.933Z,9.10
2023-11-17T08:46:53.292Z,8.70
2023-11-17T08:49:22.490Z,7.60
2023-11-17T08:51:51.334Z,8.10
2023-11-17T08:54:19.619Z,8.90
2023-11-17T08:56:49.097Z,9.30
2023-11-17T08:59:16.815Z,11.50
2023-11-17T09:01:44.736Z,44.20
2023-11-17T09:04:13.600Z,17.10
2023-11-17T09:06:41.418Z,12.80
2023-11-17T09:11:47.498Z,9.70
2023-11-17T09:14:15.191Z,9.70
2023-11-17T09:16:49.068Z,9.40
2023-11-17T09:19:17.822Z,9.70
2023-11-17T09:21:45.549Z,9.30
2023-11-17T09:24:13.081Z,8.20
2023-11-17T09:26:40.626Z,9.00
2023-11-17T09:29:08.716Z,10.40
2023-11-17T09:31:36.245Z,10.70
2023-11-17T09:34:04.067Z,10.50
2023-11-17T09:36:31.743Z,11.30
2023-11-17T09:38:59.279Z,11.00
2023-11-17T09:41:26.882Z,11.90
2023-11-17T09:43:59.133Z,11.00
2023-11-17T09:46:30.860Z,10.60
2023-11-17T09:49:00.888Z,11.90
2023-11-17T09:51:29.881Z,9.90
2023-11-17T09:53:57.510Z,9.40
2023-11-17T09:56:25.053Z,10.10
2023-11-17T09:58:54.790Z,10.40
2023-11-17T10:01:23.562Z,11.40
2023-11-17T10:03:51.260Z,11.40
2023-11-17T10:06:19.501Z,11.40
2023-11-17T10:08:47.125Z,11.70
2023-11-17T10:11:14.596Z,10.20
2023-11-17T10:13:42.153Z,10.60
2023-11-17T10:16:09.740Z,10.50
2023-11-17T10:18:38.565Z,10.50
2023-11-17T10:21:06.782Z,12.60
2023-11-17T10:23:35.227Z,13.80
2023-11-17T10:26:04.771Z,13.00
2023-11-17T10:28:32.565Z,13.60
2023-11-17T10:31:06.692Z,12.30
2023-11-17T10:33:35.653Z,13.00
2023-11-17T10:36:12.388Z,10.00
2023-11-17T10:38:40.747Z,10.70
2023-11-17T10:41:18.182Z,10.70
2023-11-17T10:43:50.504Z,11.80
2023-11-17T10:46:27.867Z,11.50
2023-11-17T10:49:02.796Z,11.30
2023-11-17T10:51:31.996Z,11.30
2023-11-17T10:54:13.283Z,11.90
2023-11-17T10:56:42.547Z,13.20
2023-11-17T10:59:10.835Z,12.20
2023-11-17T11:01:38.798Z,11.10
2023-11-17T11:04:17.157Z,12.90
2023-11-17T11:06:45.005Z,13.10
2023-11-17T11:09:18.329Z,14.90
2023-11-17T11:11:52.238Z,13.10
2023-11-17T11:14:22.007Z,12.50
2023-11-17T11:16:50.604Z,12.10
2023-11-17T11:19:24.424Z,12.60
2023-11-17T11:22:02.551Z,12.70
2023-11-17T11:24:39.362Z,13.20
2023-11-17T11:27:08.053Z,14.20
2023-11-17T11:29:42.076Z,12.90
2023-11-17T11:32:11.981Z,12.40
2023-11-17T11:34:40.529Z,12.40
2023-11-17T11:37:12.054Z,13.40
2023-11-17T11:39:40.155Z,12.70
2023-11-17T11:42:08.888Z,13.30
2023-11-17T11:44:36.852Z,12.60
2023-11-17T11:47:05.923Z,13.40
2023-11-17T11:49:35.550Z,13.20
2023-11-17T11:52:11.221Z,12.20
2023-11-17T11:54:39.013Z,11.80
2023-11-17T11:57:27.172Z,11.70
2023-11-17T12:00:07.960Z,13.50
2023-11-17T12:02:54.214Z,14.10
2023-11-17T12:05:24.137Z,15.60
2023-11-17T12:07:51.703Z,12.40
2023-11-17T12:10:19.417Z,12.10
2023-11-17T12:12:49.908Z,13.10
2023-11-17T12:15:19.533Z,14.90
2023-11-17T12:17:47.110Z,14.00
2023-11-17T12:20:41.229Z,14.80
2023-11-17T12:23:09.664Z,15.60
2023-11-17T12:25:38.357Z,15.10
2023-11-17T12:28:06.454Z,14.40
2023-11-17T12:30:37.578Z,13.80
2023-11-17T12:33:05.777Z,14.80
2023-11-17T12:35:33.394Z,15.70
2023-11-17T12:38:01.858Z,15.70
2023-11-17T12:40:30.849Z,15.20
2023-11-17T12:42:59.425Z,15.10
2023-11-17T12:45:29.752Z,17.40
2023-11-17T12:48:02.068Z,17.60
2023-11-17T12:50:42.440Z,15.70
2023-11-17T12:53:11.413Z,16.70
2023-11-17T12:55:47.432Z,15.20
2023-11-17T12:58:15.314Z,13.60
2023-11-17T13:00:43.039Z,13.60
2023-11-17T13:03:10.649Z,14.30
2023-11-17T13:05:38.482Z,15.30
2023-11-17T13:08:06.020Z,15.20
2023-11-17T13:10:33.828Z,15.00
2023-11-17T13:13:01.642Z,13.80
2023-11-17T13:15:30.291Z,12.30
2023-11-17T13:17:59.099Z,13.60
2023-11-17T13:20:26.828Z,12.10
2023-11-17T13:22:57.268Z,12.60
2023-11-17T13:25:27.729Z,12.80
2023-11-17T13:27:55.710Z,12.70
2023-11-17T13:30:23.325Z,11.70
2023-11-17T13:32:53.242Z,10.70
2023-11-17T13:35:21.342Z,13.00
2023-11-17T13:37:54.088Z,13.70
2023-11-17T13:40:31.173Z,13.10
2023-11-17T13:43:00.522Z,15.30
2023-11-17T13:45:28.663Z,15.80
2023-11-17T13:48:01.733Z,15.90
2023-11-17T13:50:29.783Z,14.80
2023-11-17T13:52:59.423Z,12.50
2023-11-17T13:55:28.934Z,14.10
2023-11-17T13:57:57.680Z,12.00
2023-11-17T14:00:25.525Z,12.20
2023-11-17T14:02:53.298Z,10.90
2023-11-17T14:05:21.287Z,11.00
2023-11-17T14:07:49.464Z,11.40
2023-11-17T14:10:19.306Z,11.60
2023-11-17T14:12:48.242Z,11.60
2023-11-17T14:15:18.007Z,12.20
2023-11-17T14:17:45.903Z,11.30
2023-11-17T14:20:17.052Z,10.40
2023-11-17T14:22:44.915Z,11.00
2023-11-17T14:25:13.681Z,12.20
2023-11-17T14:27:42.164Z,11.30
2023-11-17T14:30:10.293Z,11.40
2023-11-17T14:32:39.277Z,10.10
2023-11-17T14:35:08.426Z,9.90
2023-11-17T14:37:36.114Z,9.40
2023-11-17T14:40:11.267Z,10.70
2023-11-17T14:42:38.956Z,11.30
2023-11-17T14:47:40.419Z,9.20
2023-11-17T14:50:21.400Z,9.20
2023-11-17T14:52:49.005Z,8.60
2023-11-17T14:55:23.870Z,9.80
2023-11-17T14:57:51.628Z,8.30
2023-11-17T15:00:21.648Z,9.80
2023-11-17T15:02:50.568Z,8.50
2023-11-17T15:05:22.126Z,8.90
2023-11-17T15:07:50.350Z,9.40
2023-11-17T15:10:20.726Z,8.50
2023-11-17T15:12:50.020Z,8.50
2023-11-17T15:15:29.993Z,9.20
2023-11-17T15:17:59.768Z,8.30
2023-11-17T15:20:34.434Z,8.60
2023-11-17T15:23:02.683Z,8.80
2023-11-17T15:25:37.840Z,9.00
2023-11-17T15:28:14.371Z,9.60
2023-11-17T15:30:48.191Z,9.30
2023-11-17T15:33:17.747Z,8.50
2023-11-17T15:35:46.660Z,9.10
2023-11-17T15:38:14.257Z,9.40
2023-11-17T15:40:42.451Z,9.10
2023-11-17T15:43:10.126Z,10.00
2023-11-17T15:45:37.897Z,11.20
2023-11-17T15:48:05.842Z,10.40
2023-11-17T15:50:33.986Z,10.40
2023-11-17T15:53:01.629Z,10.10
2023-11-17T15:55:29.289Z,10.20
2023-11-17T15:57:56.912Z,11.20
2023-11-17T16:00:25.115Z,11.10
2023-11-17T16:02:53.355Z,10.30
2023-11-17T16:05:23.371Z,11.10
2023-11-17T16:07:53.060Z,10.80
2023-11-17T16:10:23.976Z,10.70
2023-11-17T16:12:53.455Z,11.60
2023-11-17T16:15:22.265Z,11.50
2023-11-17T16:17:56.092Z,14.30
2023-11-17T16:20:27.721Z,12.60
2023-11-17T16:22:55.442Z,11.80
2023-11-17T16:25:23.385Z,11.20
2023-11-17T16:27:52.825Z,11.30
2023-11-17T16:30:21.926Z,13.00
2023-11-17T16:32:51.103Z,13.10
2023-11-17T16:35:28.076Z,13.80
2023-11-17T16:37:56.187Z,12.50
2023-11-17T16:40:25.529Z,13.70
2023-11-17T16:43:09.947Z,12.90
2023-11-17T16:45:41.189Z,13.50
2023-11-17T16:48:09.300Z,14.10
2023-11-17T16:50:39.791Z,14.90
2023-11-17T16:53:10.224Z,15.40
2023-11-17T16:55:38.830Z,13.50
2023-11-17T16:58:06.891Z,14.30
2023-11-17T17:00:36.782Z,14.50
2023-11-17T17:03:06.216Z,15.40
2023-11-17T17:05:37.512Z,15.70
2023-11-17T17:08:08.593Z,16.70
2023-11-17T17:10:38.046Z,14.80
2023-11-17T17:13:05.822Z,15.80
2023-11-17T17:15:34.968Z,16.20
2023-11-17T17:18:07.326Z,18.30
2023-11-17T17:20:39.468Z,16.60
2023-11-17T17:23:08.654Z,16.90
2023-11-17T17:25:41.331Z,17.20
2023-11-17T17:28:14.061Z,16.20
2023-11-17T17:30:42.981Z,17.90
2023-11-17T17:33:13.057Z,18.40
2023-11-17T17:35:41.665Z,18.50
2023-11-17T17:38:13.662Z,18.10
2023-11-17T17:40:42.912Z,17.40
2023-11-17T17:43:12.949Z,16.50
2023-11-17T17:45:41.459Z,17.70
2023-11-17T17:48:09.983Z,17.50
2023-11-17T17:50:38.638Z,19.20
2023-11-17T17:53:07.178Z,17.80
2023-11-17T17:55:36.126Z,18.50
2023-11-17T17:58:03.871Z,16.40
2023-11-17T18:00:32.548Z,16.30
2023-11-17T18:03:01.928Z,17.60
2023-11-17T18:05:31.541Z,18.50
2023-11-17T18:07:59.377Z,19.10
2023-11-17T18:10:27.252Z,16.90
2023-11-17T18:12:55.137Z,16.80
2023-11-17T18:15:23.564Z,17.30
2023-11-17T18:17:52.693Z,17.70
2023-11-17T18:20:25.010Z,17.70
2023-11-17T18:22:54.126Z,17.70
2023-11-17T18:25:24.835Z,17.50
2023-11-17T18:27:55.984Z,18.40
2023-11-17T18:30:25.012Z,16.70
2023-11-17T18:32:53.212Z,16.20
2023-11-17T18:35:25.144Z,18.50
2023-11-17T18:37:55.218Z,18.40
2023-11-17T18:40:28.658Z,16.70
2023-11-17T18:42:59.154Z,15.90
2023-11-17T18:45:28.018Z,17.20
2023-11-17T18:47:56.756Z,18.00
2023-11-17T18:50:25.247Z,17.30
2023-11-17T18:52:55.391Z,19.20
2023-11-17T18:55:23.177Z,18.90
2023-11-17T18:57:51.716Z,18.20
2023-11-17T19:00:21.951Z,17.90
2023-11-17T19:02:53.595Z,18.90
2023-11-17T19:05:22.453Z,18.80
2023-11-17T19:07:50.966Z,19.80
2023-11-17T19:10:21.883Z,18.10
2023-11-17T19:12:51.990Z,18.50
2023-11-17T19:15:21.041Z,19.50
2023-11-17T19:17:49.963Z,20.80
2023-11-17T19:20:17.981Z,19.00
2023-11-17T19:22:46.396Z,18.40
2023-11-17T19:25:15.457Z,21.40
2023-11-17T19:27:46.123Z,19.60
2023-11-17T19:30:15.093Z,21.40
2023-11-17T19:32:45.031Z,21.50
2023-11-17T19:35:15.539Z,21.00
2023-11-17T19:37:44.624Z,20.60
2023-11-17T19:40:14.170Z,18.80
2023-11-17T19:42:43.657Z,20.60
2023-11-17T19:45:21.751Z,20.20
2023-11-17T19:47:51.226Z,21.10
2023-11-17T19:50:20.630Z,21.20
2023-11-17T19:52:50.156Z,19.20
2023-11-17T19:55:26.518Z,18.30
2023-11-17T19:57:54.878Z,19.10
2023-11-17T20:00:26.807Z,18.10
2023-11-17T20:02:55.663Z,19.50
2023-11-17T20:05:24.096Z,18.80
2023-11-17T20:07:54.139Z,17.80
2023-11-17T20:10:22.116Z,17.70
2023-11-17T20:12:50.465Z,18.10
2023-11-17T20:15:19.232Z,17.90
2023-11-17T20:18:04.523Z,18.50
2023-11-17T20:20:52.808Z,18.90
2023-11-17T20:23:23.840Z,18.10
2023-11-17T20:25:52.137Z,16.70
2023-11-17T20:28:21.579Z,17.50
2023-11-17T20:30:49.829Z,18.40
2023-11-17T20:33:17.415Z,19.10
2023-11-17T20:35:45.013Z,18.20
2023-11-17T20:38:12.764Z,18.00
2023-11-17T20:40:40.337Z,17.10
2023-11-17T20:43:14.584Z,16.00
2023-11-17T20:45:43.678Z,17.00
2023-11-17T20:48:11.832Z,16.80
2023-11-17T20:50:39.538Z,16.20
2023-11-17T20:53:10.242Z,15.90
2023-11-17T20:55:38.479Z,14.70
2023-11-17T20:58:08.599Z,14.10
2023-11-17T21:00:44.236Z,15.20
2023-11-17T21:03:12.120Z,16.20
2023-11-17T21:05:50.620Z,15.60
2023-11-17T21:08:18.083Z,15.60
2023-11-17T21:10:46.177Z,17.00
2023-11-17T21:13:14.048Z,18.10
2023-11-17T21:15:41.650Z,18.50
2023-11-17T21:18:09.292Z,18.70
2023-11-17T21:20:37.341Z,19.60
2023-11-17T21:23:05.095Z,18.30
2023-11-17T21:25:37.508Z,16.30
2023-11-17T21:28:08.439Z,17.70
2023-11-17T21:30:35.915Z,16.50
2023-11-17T21:33:05.400Z,16.20
2023-11-17T21:35:33.210Z,19.00
2023-11-17T21:38:00.793Z,16.20
2023-11-17T21:40:29.148Z,13.60
2023-11-17T21:42:58.077Z,15.70
2023-11-17T21:45:25.540Z,13.90
2023-11-17T21:47:54.421Z,15.20
2023-11-17T21:50:22.884Z,15.60
2023-11-17T21:52:55.491Z,15.60
2023-11-17T21:55:23.469Z,14.40
2023-11-17T21:57:51.088Z,13.20
2023-11-17T22:00:19.828Z,14.10
2023-11-17T22:02:49.115Z,14.70
2023-11-17T22:05:18.257Z,14.50
2023-11-17T22:07:45.924Z,14.30
2023-11-17T22:10:13.647Z,13.70
2023-11-17T22:12:49.161Z,14.10
2023-11-17T22:15:20.930Z,13.50
2023-11-17T22:17:49.205Z,12.90
2023-11-17T22:20:19.120Z,13.80
2023-11-17T22:22:51.561Z,13.50
2023-11-17T22:25:23.581Z,14.20
2023-11-17T22:27:52.326Z,14.00
2023-11-17T22:30:24.730Z,13.60
2023-11-17T22:32:54.418Z,12.70
2023-11-17T22:35:22.018Z,13.70
2023-11-17T22:37:54.579Z,13.20
2023-11-17T22:40:24.851Z,13.30
2023-11-17T22:42:53.722Z,13.40
2023-11-17T22:45:23.198Z,12.80
2023-11-17T22:47:55.012Z,12.40
2023-11-17T22:50:23.969Z,12.60
2023-11-17T22:52:55.563Z,13.00
2023-11-17T22:55:24.471Z,13.00
2023-11-17T22:57:52.226Z,12.70
2023-11-17T23:00:38.384Z,12.60
2023-11-17T23:03:12.084Z,12.40
2023-11-17T23:05:43.664Z,12.00
2023-11-17T23:08:13.470Z,13.30
2023-11-17T23:10:42.689Z,13.00
2023-11-17T23:13:18.192Z,12.70
2023-11-17T23:15:46.905Z,12.10
2023-11-17T23:18:15.083Z,11.50
2023-11-17T23:20:43.043Z,13.30
2023-11-17T23:23:10.509Z,13.20
2023-11-17T23:25:39.033Z,12.90
2023-11-17T23:28:06.904Z,12.50
2023-11-17T23:30:36.410Z,12.30
2023-11-17T23:33:12.268Z,12.40
2023-11-17T23:35:39.847Z,12.20
2023-11-17T23:38:09.193Z,13.30
2023-11-17T23:40:36.880Z,13.70
2023-11-17T23:43:04.942Z,11.50
2023-11-17T23:45:32.803Z,11.70
2023-11-17T23:48:00.349Z,12.40
2023-11-17T23:50:28.919Z,12.60
2023-11-17T23:52:56.375Z,13.70
2023-11-17T23:55:23.837Z,12.90
2023-11-17T23:57:51.259Z,13.00
